<?xml version="1.0" encoding="UTF-8" standalone="no" ?>
<gpx xmlns="http://www.topografix.com/GPX/1/1" xmlns:xsi="http://www.w3.org/2001/XMLSchema-instance" xsi:schemaLocation="http://www.topografix.com/GPX/1/1 http://www.topografix.com/GPX/1/1/gpx.xsd" version="1.1" creator="VisuGPX - https://www.visugpx.com">
  <metadata>
    <name>Sancerre Bourges</name>
  </metadata>
  <trk>
    <name><![CDATA[Sancerre Bourges_1]]></name>
    <trkseg>
      <trkpt lat="47.32943" lon="2.83336">
        <ele>245</ele>
        <time>2021-02-28T22:01:56Z</time>
      </trkpt>
      <trkpt lat="47.32943" lon="2.83329">
        <ele>244</ele>
        <time>2021-02-28T22:01:57Z</time>
      </trkpt>
      <trkpt lat="47.32923" lon="2.8323">
        <ele>242</ele>
        <time>2021-02-28T22:02:09Z</time>
      </trkpt>
      <trkpt lat="47.32927" lon="2.83168">
        <ele>243</ele>
        <time>2021-02-28T22:02:17Z</time>
      </trkpt>
      <trkpt lat="47.32942" lon="2.83094">
        <ele>241</ele>
        <time>2021-02-28T22:02:26Z</time>
      </trkpt>
      <trkpt lat="47.32947" lon="2.83043">
        <ele>242</ele>
        <time>2021-02-28T22:02:32Z</time>
      </trkpt>
      <trkpt lat="47.32946" lon="2.83014">
        <ele>243</ele>
        <time>2021-02-28T22:02:36Z</time>
      </trkpt>
      <trkpt lat="47.32941" lon="2.82942">
        <ele>245</ele>
        <time>2021-02-28T22:02:45Z</time>
      </trkpt>
      <trkpt lat="47.32937" lon="2.82915">
        <ele>247</ele>
        <time>2021-02-28T22:02:48Z</time>
      </trkpt>
      <trkpt lat="47.32932" lon="2.82892">
        <ele>247</ele>
        <time>2021-02-28T22:02:51Z</time>
      </trkpt>
      <trkpt lat="47.32896" lon="2.82784">
        <ele>250</ele>
        <time>2021-02-28T22:03:05Z</time>
      </trkpt>
      <trkpt lat="47.32826" lon="2.82539">
        <ele>246</ele>
        <time>2021-02-28T22:03:37Z</time>
      </trkpt>
      <trkpt lat="47.32757" lon="2.82241">
        <ele>241</ele>
        <time>2021-02-28T22:04:15Z</time>
      </trkpt>
      <trkpt lat="47.3272" lon="2.82094">
        <ele>239</ele>
        <time>2021-02-28T22:04:34Z</time>
      </trkpt>
      <trkpt lat="47.32706" lon="2.82051">
        <ele>238</ele>
        <time>2021-02-28T22:04:40Z</time>
      </trkpt>
      <trkpt lat="47.32669" lon="2.81962">
        <ele>239</ele>
        <time>2021-02-28T22:04:53Z</time>
      </trkpt>
      <trkpt lat="47.32644" lon="2.81855">
        <ele>235</ele>
        <time>2021-02-28T22:05:06Z</time>
      </trkpt>
      <trkpt lat="47.32637" lon="2.81816">
        <ele>233</ele>
        <time>2021-02-28T22:05:11Z</time>
      </trkpt>
      <trkpt lat="47.32636" lon="2.81804">
        <ele>232</ele>
        <time>2021-02-28T22:05:13Z</time>
      </trkpt>
      <trkpt lat="47.32641" lon="2.8171">
        <ele>225</ele>
        <time>2021-02-28T22:05:24Z</time>
      </trkpt>
      <trkpt lat="47.32641" lon="2.81651">
        <ele>221</ele>
        <time>2021-02-28T22:05:31Z</time>
      </trkpt>
      <trkpt lat="47.3264" lon="2.81632">
        <ele>219</ele>
        <time>2021-02-28T22:05:33Z</time>
      </trkpt>
      <trkpt lat="47.32633" lon="2.81594">
        <ele>216</ele>
        <time>2021-02-28T22:05:38Z</time>
      </trkpt>
      <trkpt lat="47.32623" lon="2.81558">
        <ele>215</ele>
        <time>2021-02-28T22:05:43Z</time>
      </trkpt>
      <trkpt lat="47.32577" lon="2.81461">
        <ele>212</ele>
        <time>2021-02-28T22:05:57Z</time>
      </trkpt>
      <trkpt lat="47.32568" lon="2.81434">
        <ele>211</ele>
        <time>2021-02-28T22:06:01Z</time>
      </trkpt>
      <trkpt lat="47.32566" lon="2.81419">
        <ele>210</ele>
        <time>2021-02-28T22:06:03Z</time>
      </trkpt>
      <trkpt lat="47.32567" lon="2.81385">
        <ele>210</ele>
        <time>2021-02-28T22:06:07Z</time>
      </trkpt>
      <trkpt lat="47.32594" lon="2.81224">
        <ele>218</ele>
        <time>2021-02-28T22:06:27Z</time>
      </trkpt>
      <trkpt lat="47.32596" lon="2.812">
        <ele>220</ele>
        <time>2021-02-28T22:06:30Z</time>
      </trkpt>
      <trkpt lat="47.32594" lon="2.81152">
        <ele>222</ele>
        <time>2021-02-28T22:06:35Z</time>
      </trkpt>
      <trkpt lat="47.3259" lon="2.81103">
        <ele>223</ele>
        <time>2021-02-28T22:06:41Z</time>
      </trkpt>
      <trkpt lat="47.32585" lon="2.81075">
        <ele>224</ele>
        <time>2021-02-28T22:06:45Z</time>
      </trkpt>
      <trkpt lat="47.3258" lon="2.8106">
        <ele>224</ele>
        <time>2021-02-28T22:06:47Z</time>
      </trkpt>
      <trkpt lat="47.32547" lon="2.80969">
        <ele>231</ele>
        <time>2021-02-28T22:06:59Z</time>
      </trkpt>
      <trkpt lat="47.32522" lon="2.80894">
        <ele>234</ele>
        <time>2021-02-28T22:07:09Z</time>
      </trkpt>
      <trkpt lat="47.32516" lon="2.80866">
        <ele>234</ele>
        <time>2021-02-28T22:07:13Z</time>
      </trkpt>
      <trkpt lat="47.32515" lon="2.80695">
        <ele>244</ele>
        <time>2021-02-28T22:07:34Z</time>
      </trkpt>
      <trkpt lat="47.32512" lon="2.80663">
        <ele>246</ele>
        <time>2021-02-28T22:07:38Z</time>
      </trkpt>
      <trkpt lat="47.32504" lon="2.80611">
        <ele>249</ele>
        <time>2021-02-28T22:07:44Z</time>
      </trkpt>
      <trkpt lat="47.32502" lon="2.80587">
        <ele>251</ele>
        <time>2021-02-28T22:07:47Z</time>
      </trkpt>
      <trkpt lat="47.32488" lon="2.80334">
        <ele>273</ele>
        <time>2021-02-28T22:08:17Z</time>
      </trkpt>
      <trkpt lat="47.32489" lon="2.80314">
        <ele>274</ele>
        <time>2021-02-28T22:08:20Z</time>
      </trkpt>
      <trkpt lat="47.32485" lon="2.80281">
        <ele>276</ele>
        <time>2021-02-28T22:08:24Z</time>
      </trkpt>
      <trkpt lat="47.32434" lon="2.80065">
        <ele>298</ele>
        <time>2021-02-28T22:08:52Z</time>
      </trkpt>
      <trkpt lat="47.32413" lon="2.79962">
        <ele>307</ele>
        <time>2021-02-28T22:09:05Z</time>
      </trkpt>
      <trkpt lat="47.32378" lon="2.79821">
        <ele>317</ele>
        <time>2021-02-28T22:09:23Z</time>
      </trkpt>
      <trkpt lat="47.32365" lon="2.79664">
        <ele>323</ele>
        <time>2021-02-28T22:09:42Z</time>
      </trkpt>
      <trkpt lat="47.32365" lon="2.79572">
        <ele>324</ele>
        <time>2021-02-28T22:09:53Z</time>
      </trkpt>
      <trkpt lat="47.32356" lon="2.79427">
        <ele>330</ele>
        <time>2021-02-28T22:10:10Z</time>
      </trkpt>
      <trkpt lat="47.32356" lon="2.79331">
        <ele>338</ele>
        <time>2021-02-28T22:10:22Z</time>
      </trkpt>
      <trkpt lat="47.32361" lon="2.79279">
        <ele>341</ele>
        <time>2021-02-28T22:10:28Z</time>
      </trkpt>
      <trkpt lat="47.32416" lon="2.79051">
        <ele>358</ele>
        <time>2021-02-28T22:10:57Z</time>
      </trkpt>
      <trkpt lat="47.32425" lon="2.79001">
        <ele>360</ele>
        <time>2021-02-28T22:11:04Z</time>
      </trkpt>
      <trkpt lat="47.32428" lon="2.78977">
        <ele>360</ele>
        <time>2021-02-28T22:11:07Z</time>
      </trkpt>
      <trkpt lat="47.32428" lon="2.78961">
        <ele>360</ele>
        <time>2021-02-28T22:11:09Z</time>
      </trkpt>
      <trkpt lat="47.32425" lon="2.7895">
        <ele>361</ele>
        <time>2021-02-28T22:11:10Z</time>
      </trkpt>
      <trkpt lat="47.32431" lon="2.78942">
        <ele>361</ele>
        <time>2021-02-28T22:11:11Z</time>
      </trkpt>
      <trkpt lat="47.32418" lon="2.78913">
        <ele>361</ele>
        <time>2021-02-28T22:11:16Z</time>
      </trkpt>
      <trkpt lat="47.32412" lon="2.78889">
        <ele>361</ele>
        <time>2021-02-28T22:11:19Z</time>
      </trkpt>
      <trkpt lat="47.32414" lon="2.7887">
        <ele>361</ele>
        <time>2021-02-28T22:11:21Z</time>
      </trkpt>
      <trkpt lat="47.32421" lon="2.78855">
        <ele>361</ele>
        <time>2021-02-28T22:11:23Z</time>
      </trkpt>
      <trkpt lat="47.32446" lon="2.78813">
        <ele>361</ele>
        <time>2021-02-28T22:11:30Z</time>
      </trkpt>
      <trkpt lat="47.32462" lon="2.78775">
        <ele>361</ele>
        <time>2021-02-28T22:11:35Z</time>
      </trkpt>
      <trkpt lat="47.32477" lon="2.78703">
        <ele>360</ele>
        <time>2021-02-28T22:11:44Z</time>
      </trkpt>
      <trkpt lat="47.32521" lon="2.78437">
        <ele>354</ele>
        <time>2021-02-28T22:12:17Z</time>
      </trkpt>
      <trkpt lat="47.32612" lon="2.77901">
        <ele>356</ele>
        <time>2021-02-28T22:13:24Z</time>
      </trkpt>
      <trkpt lat="47.32604" lon="2.77852">
        <ele>357</ele>
        <time>2021-02-28T22:13:30Z</time>
      </trkpt>
      <trkpt lat="47.32596" lon="2.77814">
        <ele>359</ele>
        <time>2021-02-28T22:13:35Z</time>
      </trkpt>
      <trkpt lat="47.32586" lon="2.77788">
        <ele>359</ele>
        <time>2021-02-28T22:13:39Z</time>
      </trkpt>
      <trkpt lat="47.32558" lon="2.77744">
        <ele>360</ele>
        <time>2021-02-28T22:13:46Z</time>
      </trkpt>
      <trkpt lat="47.32366" lon="2.77481">
        <ele>354</ele>
        <time>2021-02-28T22:14:32Z</time>
      </trkpt>
      <trkpt lat="47.32285" lon="2.7734">
        <ele>348</ele>
        <time>2021-02-28T22:14:55Z</time>
      </trkpt>
      <trkpt lat="47.32244" lon="2.77294">
        <ele>345</ele>
        <time>2021-02-28T22:15:04Z</time>
      </trkpt>
      <trkpt lat="47.32181" lon="2.77236">
        <ele>342</ele>
        <time>2021-02-28T22:15:17Z</time>
      </trkpt>
      <trkpt lat="47.32145" lon="2.77188">
        <ele>342</ele>
        <time>2021-02-28T22:15:26Z</time>
      </trkpt>
      <trkpt lat="47.32096" lon="2.77139">
        <ele>345</ele>
        <time>2021-02-28T22:15:36Z</time>
      </trkpt>
      <trkpt lat="47.32045" lon="2.77115">
        <ele>346</ele>
        <time>2021-02-28T22:15:46Z</time>
      </trkpt>
      <trkpt lat="47.3197" lon="2.7707">
        <ele>346</ele>
        <time>2021-02-28T22:16:00Z</time>
      </trkpt>
      <trkpt lat="47.31916" lon="2.77018">
        <ele>346</ele>
        <time>2021-02-28T22:16:12Z</time>
      </trkpt>
      <trkpt lat="47.3171" lon="2.76654">
        <ele>350</ele>
        <time>2021-02-28T22:17:09Z</time>
      </trkpt>
      <trkpt lat="47.31681" lon="2.76589">
        <ele>351</ele>
        <time>2021-02-28T22:17:18Z</time>
      </trkpt>
      <trkpt lat="47.31666" lon="2.76509">
        <ele>353</ele>
        <time>2021-02-28T22:17:28Z</time>
      </trkpt>
      <trkpt lat="47.31654" lon="2.76427">
        <ele>356</ele>
        <time>2021-02-28T22:17:38Z</time>
      </trkpt>
      <trkpt lat="47.31651" lon="2.76378">
        <ele>356</ele>
        <time>2021-02-28T22:17:44Z</time>
      </trkpt>
      <trkpt lat="47.31661" lon="2.76241">
        <ele>358</ele>
        <time>2021-02-28T22:18:01Z</time>
      </trkpt>
      <trkpt lat="47.31647" lon="2.76184">
        <ele>358</ele>
        <time>2021-02-28T22:18:08Z</time>
      </trkpt>
      <trkpt lat="47.31599" lon="2.76019">
        <ele>359</ele>
        <time>2021-02-28T22:18:30Z</time>
      </trkpt>
      <trkpt lat="47.3158" lon="2.75832">
        <ele>356</ele>
        <time>2021-02-28T22:18:53Z</time>
      </trkpt>
      <trkpt lat="47.3158" lon="2.75627">
        <ele>356</ele>
        <time>2021-02-28T22:19:18Z</time>
      </trkpt>
      <trkpt lat="47.31574" lon="2.75575">
        <ele>357</ele>
        <time>2021-02-28T22:19:24Z</time>
      </trkpt>
      <trkpt lat="47.31558" lon="2.75534">
        <ele>357</ele>
        <time>2021-02-28T22:19:30Z</time>
      </trkpt>
      <trkpt lat="47.31534" lon="2.75505">
        <ele>356</ele>
        <time>2021-02-28T22:19:35Z</time>
      </trkpt>
      <trkpt lat="47.31457" lon="2.75429">
        <ele>354</ele>
        <time>2021-02-28T22:19:52Z</time>
      </trkpt>
      <trkpt lat="47.31284" lon="2.75276">
        <ele>355</ele>
        <time>2021-02-28T22:20:27Z</time>
      </trkpt>
      <trkpt lat="47.31239" lon="2.75233">
        <ele>355</ele>
        <time>2021-02-28T22:20:37Z</time>
      </trkpt>
      <trkpt lat="47.31117" lon="2.75122">
        <ele>356</ele>
        <time>2021-02-28T22:21:03Z</time>
      </trkpt>
      <trkpt lat="47.31108" lon="2.75111">
        <ele>356</ele>
        <time>2021-02-28T22:21:05Z</time>
      </trkpt>
      <trkpt lat="47.311" lon="2.75096">
        <ele>355</ele>
        <time>2021-02-28T22:21:07Z</time>
      </trkpt>
      <trkpt lat="47.31037" lon="2.74944">
        <ele>349</ele>
        <time>2021-02-28T22:21:28Z</time>
      </trkpt>
      <trkpt lat="47.3103" lon="2.74858">
        <ele>345</ele>
        <time>2021-02-28T22:21:39Z</time>
      </trkpt>
      <trkpt lat="47.31016" lon="2.74783">
        <ele>342</ele>
        <time>2021-02-28T22:21:48Z</time>
      </trkpt>
      <trkpt lat="47.31008" lon="2.74733">
        <ele>340</ele>
        <time>2021-02-28T22:21:54Z</time>
      </trkpt>
      <trkpt lat="47.30975" lon="2.74617">
        <ele>332</ele>
        <time>2021-02-28T22:22:10Z</time>
      </trkpt>
      <trkpt lat="47.30964" lon="2.74593">
        <ele>330</ele>
        <time>2021-02-28T22:22:13Z</time>
      </trkpt>
      <trkpt lat="47.30953" lon="2.74575">
        <ele>329</ele>
        <time>2021-02-28T22:22:16Z</time>
      </trkpt>
      <trkpt lat="47.30942" lon="2.74571">
        <ele>328</ele>
        <time>2021-02-28T22:22:18Z</time>
      </trkpt>
      <trkpt lat="47.30923" lon="2.74573">
        <ele>327</ele>
        <time>2021-02-28T22:22:21Z</time>
      </trkpt>
      <trkpt lat="47.30872" lon="2.74587">
        <ele>322</ele>
        <time>2021-02-28T22:22:31Z</time>
      </trkpt>
      <trkpt lat="47.30858" lon="2.74587">
        <ele>321</ele>
        <time>2021-02-28T22:22:33Z</time>
      </trkpt>
      <trkpt lat="47.30753" lon="2.74568">
        <ele>312</ele>
        <time>2021-02-28T22:22:52Z</time>
      </trkpt>
      <trkpt lat="47.30647" lon="2.74539">
        <ele>303</ele>
        <time>2021-02-28T22:23:11Z</time>
      </trkpt>
      <trkpt lat="47.30591" lon="2.7452">
        <ele>297</ele>
        <time>2021-02-28T22:23:21Z</time>
      </trkpt>
      <trkpt lat="47.30549" lon="2.74501">
        <ele>292</ele>
        <time>2021-02-28T22:23:29Z</time>
      </trkpt>
      <trkpt lat="47.30513" lon="2.74481">
        <ele>288</ele>
        <time>2021-02-28T22:23:36Z</time>
      </trkpt>
      <trkpt lat="47.3049" lon="2.74465">
        <ele>286</ele>
        <time>2021-02-28T22:23:41Z</time>
      </trkpt>
      <trkpt lat="47.30502" lon="2.74423">
        <ele>287</ele>
        <time>2021-02-28T22:23:46Z</time>
      </trkpt>
      <trkpt lat="47.30509" lon="2.74388">
        <ele>287</ele>
        <time>2021-02-28T22:23:50Z</time>
      </trkpt>
      <trkpt lat="47.30506" lon="2.74365">
        <ele>287</ele>
        <time>2021-02-28T22:23:53Z</time>
      </trkpt>
      <trkpt lat="47.305" lon="2.74351">
        <ele>287</ele>
        <time>2021-02-28T22:23:55Z</time>
      </trkpt>
      <trkpt lat="47.30495" lon="2.74346">
        <ele>287</ele>
        <time>2021-02-28T22:23:56Z</time>
      </trkpt>
      <trkpt lat="47.30446" lon="2.74322">
        <ele>285</ele>
        <time>2021-02-28T22:24:06Z</time>
      </trkpt>
      <trkpt lat="47.30417" lon="2.74299">
        <ele>285</ele>
        <time>2021-02-28T22:24:11Z</time>
      </trkpt>
      <trkpt lat="47.30407" lon="2.74279">
        <ele>286</ele>
        <time>2021-02-28T22:24:14Z</time>
      </trkpt>
      <trkpt lat="47.30392" lon="2.74209">
        <ele>288</ele>
        <time>2021-02-28T22:24:23Z</time>
      </trkpt>
      <trkpt lat="47.30348" lon="2.73961">
        <ele>292</ele>
        <time>2021-02-28T22:24:54Z</time>
      </trkpt>
      <trkpt lat="47.30348" lon="2.73888">
        <ele>293</ele>
        <time>2021-02-28T22:25:03Z</time>
      </trkpt>
      <trkpt lat="47.30353" lon="2.73838">
        <ele>293</ele>
        <time>2021-02-28T22:25:09Z</time>
      </trkpt>
      <trkpt lat="47.30387" lon="2.7369">
        <ele>288</ele>
        <time>2021-02-28T22:25:28Z</time>
      </trkpt>
      <trkpt lat="47.30402" lon="2.73586">
        <ele>281</ele>
        <time>2021-02-28T22:25:41Z</time>
      </trkpt>
      <trkpt lat="47.30411" lon="2.73506">
        <ele>280</ele>
        <time>2021-02-28T22:25:51Z</time>
      </trkpt>
      <trkpt lat="47.30431" lon="2.73428">
        <ele>280</ele>
        <time>2021-02-28T22:26:01Z</time>
      </trkpt>
      <trkpt lat="47.3049" lon="2.73213">
        <ele>277</ele>
        <time>2021-02-28T22:26:29Z</time>
      </trkpt>
      <trkpt lat="47.30491" lon="2.73181">
        <ele>276</ele>
        <time>2021-02-28T22:26:32Z</time>
      </trkpt>
      <trkpt lat="47.30484" lon="2.73141">
        <ele>274</ele>
        <time>2021-02-28T22:26:37Z</time>
      </trkpt>
      <trkpt lat="47.3043" lon="2.72929">
        <ele>269</ele>
        <time>2021-02-28T22:27:05Z</time>
      </trkpt>
      <trkpt lat="47.30427" lon="2.72896">
        <ele>269</ele>
        <time>2021-02-28T22:27:09Z</time>
      </trkpt>
      <trkpt lat="47.30429" lon="2.72861">
        <ele>270</ele>
        <time>2021-02-28T22:27:13Z</time>
      </trkpt>
      <trkpt lat="47.30438" lon="2.72812">
        <ele>270</ele>
        <time>2021-02-28T22:27:19Z</time>
      </trkpt>
      <trkpt lat="47.305" lon="2.7254">
        <ele>266</ele>
        <time>2021-02-28T22:27:54Z</time>
      </trkpt>
      <trkpt lat="47.30516" lon="2.72486">
        <ele>265</ele>
        <time>2021-02-28T22:28:01Z</time>
      </trkpt>
      <trkpt lat="47.30563" lon="2.72364">
        <ele>264</ele>
        <time>2021-02-28T22:28:18Z</time>
      </trkpt>
      <trkpt lat="47.30576" lon="2.72307">
        <ele>263</ele>
        <time>2021-02-28T22:28:25Z</time>
      </trkpt>
      <trkpt lat="47.30577" lon="2.72275">
        <ele>263</ele>
        <time>2021-02-28T22:28:29Z</time>
      </trkpt>
      <trkpt lat="47.30562" lon="2.72148">
        <ele>266</ele>
        <time>2021-02-28T22:28:45Z</time>
      </trkpt>
      <trkpt lat="47.30458" lon="2.71702">
        <ele>258</ele>
        <time>2021-02-28T22:29:41Z</time>
      </trkpt>
      <trkpt lat="47.30446" lon="2.71642">
        <ele>256</ele>
        <time>2021-02-28T22:29:49Z</time>
      </trkpt>
      <trkpt lat="47.30444" lon="2.71593">
        <ele>254</ele>
        <time>2021-02-28T22:29:55Z</time>
      </trkpt>
      <trkpt lat="47.30455" lon="2.71515">
        <ele>251</ele>
        <time>2021-02-28T22:30:04Z</time>
      </trkpt>
      <trkpt lat="47.3048" lon="2.71388">
        <ele>245</ele>
        <time>2021-02-28T22:30:20Z</time>
      </trkpt>
      <trkpt lat="47.30484" lon="2.71347">
        <ele>243</ele>
        <time>2021-02-28T22:30:25Z</time>
      </trkpt>
      <trkpt lat="47.30483" lon="2.71324">
        <ele>243</ele>
        <time>2021-02-28T22:30:28Z</time>
      </trkpt>
      <trkpt lat="47.30419" lon="2.70911">
        <ele>239</ele>
        <time>2021-02-28T22:31:19Z</time>
      </trkpt>
      <trkpt lat="47.30399" lon="2.70787">
        <ele>241</ele>
        <time>2021-02-28T22:31:35Z</time>
      </trkpt>
      <trkpt lat="47.30392" lon="2.70682">
        <ele>245</ele>
        <time>2021-02-28T22:31:47Z</time>
      </trkpt>
      <trkpt lat="47.30403" lon="2.7059">
        <ele>248</ele>
        <time>2021-02-28T22:31:59Z</time>
      </trkpt>
      <trkpt lat="47.30435" lon="2.705">
        <ele>251</ele>
        <time>2021-02-28T22:32:11Z</time>
      </trkpt>
      <trkpt lat="47.30464" lon="2.70396">
        <ele>253</ele>
        <time>2021-02-28T22:32:25Z</time>
      </trkpt>
      <trkpt lat="47.30493" lon="2.703">
        <ele>255</ele>
        <time>2021-02-28T22:32:37Z</time>
      </trkpt>
      <trkpt lat="47.30493" lon="2.70229">
        <ele>255</ele>
        <time>2021-02-28T22:32:46Z</time>
      </trkpt>
      <trkpt lat="47.30459" lon="2.70119">
        <ele>253</ele>
        <time>2021-02-28T22:33:00Z</time>
      </trkpt>
      <trkpt lat="47.30405" lon="2.69982">
        <ele>249</ele>
        <time>2021-02-28T22:33:20Z</time>
      </trkpt>
      <trkpt lat="47.30383" lon="2.69931">
        <ele>247</ele>
        <time>2021-02-28T22:33:27Z</time>
      </trkpt>
      <trkpt lat="47.30357" lon="2.6982">
        <ele>248</ele>
        <time>2021-02-28T22:33:41Z</time>
      </trkpt>
      <trkpt lat="47.30357" lon="2.69711">
        <ele>250</ele>
        <time>2021-02-28T22:33:54Z</time>
      </trkpt>
      <trkpt lat="47.30372" lon="2.69424">
        <ele>251</ele>
        <time>2021-02-28T22:34:29Z</time>
      </trkpt>
      <trkpt lat="47.30396" lon="2.69323">
        <ele>251</ele>
        <time>2021-02-28T22:34:42Z</time>
      </trkpt>
      <trkpt lat="47.30392" lon="2.69214">
        <ele>253</ele>
        <time>2021-02-28T22:34:55Z</time>
      </trkpt>
      <trkpt lat="47.30376" lon="2.6901">
        <ele>257</ele>
        <time>2021-02-28T22:35:20Z</time>
      </trkpt>
      <trkpt lat="47.30356" lon="2.6877">
        <ele>260</ele>
        <time>2021-02-28T22:35:49Z</time>
      </trkpt>
      <trkpt lat="47.30354" lon="2.68742">
        <ele>261</ele>
        <time>2021-02-28T22:35:52Z</time>
      </trkpt>
      <trkpt lat="47.30348" lon="2.6868">
        <ele>264</ele>
        <time>2021-02-28T22:36:00Z</time>
      </trkpt>
      <trkpt lat="47.30345" lon="2.6867">
        <ele>265</ele>
        <time>2021-02-28T22:36:01Z</time>
      </trkpt>
      <trkpt lat="47.3034" lon="2.68662">
        <ele>265</ele>
        <time>2021-02-28T22:36:02Z</time>
      </trkpt>
      <trkpt lat="47.30276" lon="2.68629">
        <ele>268</ele>
        <time>2021-02-28T22:36:15Z</time>
      </trkpt>
      <trkpt lat="47.3026" lon="2.68611">
        <ele>269</ele>
        <time>2021-02-28T22:36:18Z</time>
      </trkpt>
      <trkpt lat="47.30233" lon="2.68576">
        <ele>272</ele>
        <time>2021-02-28T22:36:25Z</time>
      </trkpt>
      <trkpt lat="47.30214" lon="2.68556">
        <ele>274</ele>
        <time>2021-02-28T22:36:29Z</time>
      </trkpt>
      <trkpt lat="47.30199" lon="2.68546">
        <ele>275</ele>
        <time>2021-02-28T22:36:32Z</time>
      </trkpt>
      <trkpt lat="47.30187" lon="2.68526">
        <ele>276</ele>
        <time>2021-02-28T22:36:35Z</time>
      </trkpt>
      <trkpt lat="47.30102" lon="2.68317">
        <ele>287</ele>
        <time>2021-02-28T22:37:04Z</time>
      </trkpt>
      <trkpt lat="47.29978" lon="2.67977">
        <ele>303</ele>
        <time>2021-02-28T22:37:51Z</time>
      </trkpt>
      <trkpt lat="47.29971" lon="2.67927">
        <ele>303</ele>
        <time>2021-02-28T22:37:57Z</time>
      </trkpt>
      <trkpt lat="47.29988" lon="2.67844">
        <ele>308</ele>
        <time>2021-02-28T22:38:07Z</time>
      </trkpt>
      <trkpt lat="47.29988" lon="2.67789">
        <ele>310</ele>
        <time>2021-02-28T22:38:14Z</time>
      </trkpt>
      <trkpt lat="47.29983" lon="2.67618">
        <ele>308</ele>
        <time>2021-02-28T22:38:35Z</time>
      </trkpt>
      <trkpt lat="47.29981" lon="2.67459">
        <ele>303</ele>
        <time>2021-02-28T22:38:54Z</time>
      </trkpt>
      <trkpt lat="47.29983" lon="2.67427">
        <ele>302</ele>
        <time>2021-02-28T22:38:58Z</time>
      </trkpt>
      <trkpt lat="47.29987" lon="2.67399">
        <ele>301</ele>
        <time>2021-02-28T22:39:01Z</time>
      </trkpt>
      <trkpt lat="47.30003" lon="2.67324">
        <ele>300</ele>
        <time>2021-02-28T22:39:11Z</time>
      </trkpt>
      <trkpt lat="47.30014" lon="2.67285">
        <ele>300</ele>
        <time>2021-02-28T22:39:16Z</time>
      </trkpt>
      <trkpt lat="47.3004" lon="2.67216">
        <ele>302</ele>
        <time>2021-02-28T22:39:25Z</time>
      </trkpt>
      <trkpt lat="47.30045" lon="2.67196">
        <ele>302</ele>
        <time>2021-02-28T22:39:28Z</time>
      </trkpt>
      <trkpt lat="47.30046" lon="2.67175">
        <ele>302</ele>
        <time>2021-02-28T22:39:30Z</time>
      </trkpt>
      <trkpt lat="47.30045" lon="2.67151">
        <ele>301</ele>
        <time>2021-02-28T22:39:33Z</time>
      </trkpt>
      <trkpt lat="47.30037" lon="2.67111">
        <ele>300</ele>
        <time>2021-02-28T22:39:38Z</time>
      </trkpt>
      <trkpt lat="47.3003" lon="2.6709">
        <ele>299</ele>
        <time>2021-02-28T22:39:41Z</time>
      </trkpt>
      <trkpt lat="47.3002" lon="2.67071">
        <ele>298</ele>
        <time>2021-02-28T22:39:44Z</time>
      </trkpt>
      <trkpt lat="47.29955" lon="2.66984">
        <ele>297</ele>
        <time>2021-02-28T22:40:00Z</time>
      </trkpt>
      <trkpt lat="47.29946" lon="2.6696">
        <ele>298</ele>
        <time>2021-02-28T22:40:03Z</time>
      </trkpt>
      <trkpt lat="47.29927" lon="2.66898">
        <ele>298</ele>
        <time>2021-02-28T22:40:11Z</time>
      </trkpt>
      <trkpt lat="47.2992" lon="2.66864">
        <ele>297</ele>
        <time>2021-02-28T22:40:16Z</time>
      </trkpt>
      <trkpt lat="47.29917" lon="2.66844">
        <ele>296</ele>
        <time>2021-02-28T22:40:18Z</time>
      </trkpt>
      <trkpt lat="47.29918" lon="2.66817">
        <ele>296</ele>
        <time>2021-02-28T22:40:21Z</time>
      </trkpt>
      <trkpt lat="47.29927" lon="2.6676">
        <ele>296</ele>
        <time>2021-02-28T22:40:28Z</time>
      </trkpt>
      <trkpt lat="47.2994" lon="2.66652">
        <ele>295</ele>
        <time>2021-02-28T22:40:42Z</time>
      </trkpt>
      <trkpt lat="47.29948" lon="2.66625">
        <ele>294</ele>
        <time>2021-02-28T22:40:45Z</time>
      </trkpt>
      <trkpt lat="47.30007" lon="2.66478">
        <ele>292</ele>
        <time>2021-02-28T22:41:06Z</time>
      </trkpt>
      <trkpt lat="47.30013" lon="2.66457">
        <ele>292</ele>
        <time>2021-02-28T22:41:08Z</time>
      </trkpt>
      <trkpt lat="47.30016" lon="2.66441">
        <ele>291</ele>
        <time>2021-02-28T22:41:10Z</time>
      </trkpt>
      <trkpt lat="47.30013" lon="2.6635">
        <ele>290</ele>
        <time>2021-02-28T22:41:21Z</time>
      </trkpt>
      <trkpt lat="47.30015" lon="2.6627">
        <ele>288</ele>
        <time>2021-02-28T22:41:31Z</time>
      </trkpt>
      <trkpt lat="47.30015" lon="2.66171">
        <ele>282</ele>
        <time>2021-02-28T22:41:43Z</time>
      </trkpt>
      <trkpt lat="47.30018" lon="2.65966">
        <ele>279</ele>
        <time>2021-02-28T22:42:08Z</time>
      </trkpt>
      <trkpt lat="47.30026" lon="2.65824">
        <ele>285</ele>
        <time>2021-02-28T22:42:25Z</time>
      </trkpt>
      <trkpt lat="47.30039" lon="2.65733">
        <ele>288</ele>
        <time>2021-02-28T22:42:36Z</time>
      </trkpt>
      <trkpt lat="47.30073" lon="2.6559">
        <ele>286</ele>
        <time>2021-02-28T22:42:55Z</time>
      </trkpt>
      <trkpt lat="47.30133" lon="2.65435">
        <ele>287</ele>
        <time>2021-02-28T22:43:16Z</time>
      </trkpt>
      <trkpt lat="47.30156" lon="2.65379">
        <ele>284</ele>
        <time>2021-02-28T22:43:24Z</time>
      </trkpt>
      <trkpt lat="47.30167" lon="2.65357">
        <ele>283</ele>
        <time>2021-02-28T22:43:27Z</time>
      </trkpt>
      <trkpt lat="47.30182" lon="2.65337">
        <ele>283</ele>
        <time>2021-02-28T22:43:31Z</time>
      </trkpt>
      <trkpt lat="47.30195" lon="2.65323">
        <ele>284</ele>
        <time>2021-02-28T22:43:34Z</time>
      </trkpt>
      <trkpt lat="47.3025" lon="2.65274">
        <ele>289</ele>
        <time>2021-02-28T22:43:45Z</time>
      </trkpt>
      <trkpt lat="47.30279" lon="2.65242">
        <ele>291</ele>
        <time>2021-02-28T22:43:52Z</time>
      </trkpt>
      <trkpt lat="47.30357" lon="2.65136">
        <ele>292</ele>
        <time>2021-02-28T22:44:10Z</time>
      </trkpt>
      <trkpt lat="47.30454" lon="2.6493">
        <ele>289</ele>
        <time>2021-02-28T22:44:41Z</time>
      </trkpt>
      <trkpt lat="47.30488" lon="2.64863">
        <ele>290</ele>
        <time>2021-02-28T22:44:51Z</time>
      </trkpt>
      <trkpt lat="47.30497" lon="2.64836">
        <ele>291</ele>
        <time>2021-02-28T22:44:54Z</time>
      </trkpt>
      <trkpt lat="47.30513" lon="2.64745">
        <ele>293</ele>
        <time>2021-02-28T22:45:06Z</time>
      </trkpt>
      <trkpt lat="47.30608" lon="2.64022">
        <ele>303</ele>
        <time>2021-02-28T22:46:35Z</time>
      </trkpt>
      <trkpt lat="47.30606" lon="2.63944">
        <ele>302</ele>
        <time>2021-02-28T22:46:44Z</time>
      </trkpt>
      <trkpt lat="47.30588" lon="2.638">
        <ele>300</ele>
        <time>2021-02-28T22:47:02Z</time>
      </trkpt>
      <trkpt lat="47.30554" lon="2.63563">
        <ele>302</ele>
        <time>2021-02-28T22:47:31Z</time>
      </trkpt>
      <trkpt lat="47.3054" lon="2.63444">
        <ele>305</ele>
        <time>2021-02-28T22:47:46Z</time>
      </trkpt>
      <trkpt lat="47.30517" lon="2.63287">
        <ele>310</ele>
        <time>2021-02-28T22:48:05Z</time>
      </trkpt>
      <trkpt lat="47.30501" lon="2.63199">
        <ele>313</ele>
        <time>2021-02-28T22:48:16Z</time>
      </trkpt>
      <trkpt lat="47.30476" lon="2.63131">
        <ele>316</ele>
        <time>2021-02-28T22:48:25Z</time>
      </trkpt>
      <trkpt lat="47.3043" lon="2.63">
        <ele>323</ele>
        <time>2021-02-28T22:48:43Z</time>
      </trkpt>
      <trkpt lat="47.30401" lon="2.62929">
        <ele>327</ele>
        <time>2021-02-28T22:48:53Z</time>
      </trkpt>
      <trkpt lat="47.30388" lon="2.62875">
        <ele>330</ele>
        <time>2021-02-28T22:49:00Z</time>
      </trkpt>
      <trkpt lat="47.30384" lon="2.628">
        <ele>335</ele>
        <time>2021-02-28T22:49:09Z</time>
      </trkpt>
      <trkpt lat="47.30385" lon="2.62758">
        <ele>337</ele>
        <time>2021-02-28T22:49:14Z</time>
      </trkpt>
      <trkpt lat="47.30398" lon="2.62672">
        <ele>340</ele>
        <time>2021-02-28T22:49:25Z</time>
      </trkpt>
      <trkpt lat="47.30424" lon="2.62527">
        <ele>341</ele>
        <time>2021-02-28T22:49:43Z</time>
      </trkpt>
      <trkpt lat="47.30451" lon="2.62397">
        <ele>345</ele>
        <time>2021-02-28T22:49:59Z</time>
      </trkpt>
      <trkpt lat="47.30471" lon="2.62281">
        <ele>348</ele>
        <time>2021-02-28T22:50:14Z</time>
      </trkpt>
      <trkpt lat="47.30483" lon="2.62217">
        <ele>350</ele>
        <time>2021-02-28T22:50:22Z</time>
      </trkpt>
      <trkpt lat="47.30486" lon="2.62192">
        <ele>351</ele>
        <time>2021-02-28T22:50:25Z</time>
      </trkpt>
      <trkpt lat="47.3048" lon="2.62156">
        <ele>352</ele>
        <time>2021-02-28T22:50:29Z</time>
      </trkpt>
      <trkpt lat="47.30464" lon="2.62132">
        <ele>354</ele>
        <time>2021-02-28T22:50:33Z</time>
      </trkpt>
      <trkpt lat="47.30434" lon="2.62093">
        <ele>357</ele>
        <time>2021-02-28T22:50:40Z</time>
      </trkpt>
      <trkpt lat="47.30412" lon="2.62078">
        <ele>358</ele>
        <time>2021-02-28T22:50:45Z</time>
      </trkpt>
      <trkpt lat="47.30385" lon="2.6208">
        <ele>359</ele>
        <time>2021-02-28T22:50:50Z</time>
      </trkpt>
      <trkpt lat="47.30351" lon="2.6208">
        <ele>361</ele>
        <time>2021-02-28T22:50:56Z</time>
      </trkpt>
      <trkpt lat="47.30318" lon="2.62063">
        <ele>364</ele>
        <time>2021-02-28T22:51:02Z</time>
      </trkpt>
      <trkpt lat="47.30274" lon="2.62021">
        <ele>368</ele>
        <time>2021-02-28T22:51:11Z</time>
      </trkpt>
      <trkpt lat="47.30096" lon="2.61865">
        <ele>372</ele>
        <time>2021-02-28T22:51:48Z</time>
      </trkpt>
      <trkpt lat="47.30008" lon="2.61784">
        <ele>376</ele>
        <time>2021-02-28T22:52:06Z</time>
      </trkpt>
      <trkpt lat="47.29929" lon="2.61691">
        <ele>383</ele>
        <time>2021-02-28T22:52:24Z</time>
      </trkpt>
      <trkpt lat="47.29868" lon="2.6157">
        <ele>386</ele>
        <time>2021-02-28T22:52:43Z</time>
      </trkpt>
      <trkpt lat="47.297" lon="2.61266">
        <ele>390</ele>
        <time>2021-02-28T22:53:30Z</time>
      </trkpt>
      <trkpt lat="47.29527" lon="2.60937">
        <ele>381</ele>
        <time>2021-02-28T22:54:20Z</time>
      </trkpt>
      <trkpt lat="47.29349" lon="2.60502">
        <ele>379</ele>
        <time>2021-02-28T22:55:21Z</time>
      </trkpt>
      <trkpt lat="47.28803" lon="2.59208">
        <ele>387</ele>
        <time>2021-02-28T22:58:25Z</time>
      </trkpt>
      <trkpt lat="47.28796" lon="2.59178">
        <ele>387</ele>
        <time>2021-02-28T22:58:29Z</time>
      </trkpt>
      <trkpt lat="47.28772" lon="2.59081">
        <ele>389</ele>
        <time>2021-02-28T22:58:42Z</time>
      </trkpt>
      <trkpt lat="47.28694" lon="2.58806">
        <ele>391</ele>
        <time>2021-02-28T22:59:18Z</time>
      </trkpt>
      <trkpt lat="47.28608" lon="2.5837">
        <ele>386</ele>
        <time>2021-02-28T23:00:12Z</time>
      </trkpt>
      <trkpt lat="47.28569" lon="2.58247">
        <ele>383</ele>
        <time>2021-02-28T23:00:29Z</time>
      </trkpt>
      <trkpt lat="47.28545" lon="2.58154">
        <ele>379</ele>
        <time>2021-02-28T23:00:41Z</time>
      </trkpt>
      <trkpt lat="47.28545" lon="2.58053">
        <ele>377</ele>
        <time>2021-02-28T23:00:53Z</time>
      </trkpt>
      <trkpt lat="47.28551" lon="2.5783">
        <ele>376</ele>
        <time>2021-02-28T23:01:20Z</time>
      </trkpt>
      <trkpt lat="47.28509" lon="2.57683">
        <ele>370</ele>
        <time>2021-02-28T23:01:39Z</time>
      </trkpt>
      <trkpt lat="47.2848" lon="2.57593">
        <ele>367</ele>
        <time>2021-02-28T23:01:51Z</time>
      </trkpt>
      <trkpt lat="47.28463" lon="2.57602">
        <ele>367</ele>
        <time>2021-02-28T23:01:54Z</time>
      </trkpt>
      <trkpt lat="47.28456" lon="2.57609">
        <ele>367</ele>
        <time>2021-02-28T23:01:56Z</time>
      </trkpt>
      <trkpt lat="47.28429" lon="2.57642">
        <ele>366</ele>
        <time>2021-02-28T23:02:02Z</time>
      </trkpt>
      <trkpt lat="47.28407" lon="2.57687">
        <ele>366</ele>
        <time>2021-02-28T23:02:09Z</time>
      </trkpt>
      <trkpt lat="47.2838" lon="2.57745">
        <ele>366</ele>
        <time>2021-02-28T23:02:17Z</time>
      </trkpt>
      <trkpt lat="47.28366" lon="2.57792">
        <ele>365</ele>
        <time>2021-02-28T23:02:24Z</time>
      </trkpt>
      <trkpt lat="47.2836" lon="2.57834">
        <ele>365</ele>
        <time>2021-02-28T23:02:29Z</time>
      </trkpt>
      <trkpt lat="47.28332" lon="2.57964">
        <ele>365</ele>
        <time>2021-02-28T23:02:45Z</time>
      </trkpt>
      <trkpt lat="47.2831" lon="2.57995">
        <ele>364</ele>
        <time>2021-02-28T23:02:51Z</time>
      </trkpt>
      <trkpt lat="47.28292" lon="2.58003">
        <ele>363</ele>
        <time>2021-02-28T23:02:54Z</time>
      </trkpt>
      <trkpt lat="47.28245" lon="2.58054">
        <ele>364</ele>
        <time>2021-02-28T23:03:04Z</time>
      </trkpt>
      <trkpt lat="47.28234" lon="2.58078">
        <ele>365</ele>
        <time>2021-02-28T23:03:08Z</time>
      </trkpt>
      <trkpt lat="47.28223" lon="2.58114">
        <ele>366</ele>
        <time>2021-02-28T23:03:13Z</time>
      </trkpt>
      <trkpt lat="47.28214" lon="2.58135">
        <ele>366</ele>
        <time>2021-02-28T23:03:16Z</time>
      </trkpt>
      <trkpt lat="47.28179" lon="2.58237">
        <ele>370</ele>
        <time>2021-02-28T23:03:29Z</time>
      </trkpt>
      <trkpt lat="47.281" lon="2.58489">
        <ele>372</ele>
        <time>2021-02-28T23:04:03Z</time>
      </trkpt>
      <trkpt lat="47.28089" lon="2.58538">
        <ele>371</ele>
        <time>2021-02-28T23:04:09Z</time>
      </trkpt>
      <trkpt lat="47.28083" lon="2.58626">
        <ele>370</ele>
        <time>2021-02-28T23:04:20Z</time>
      </trkpt>
      <trkpt lat="47.28092" lon="2.58679">
        <ele>369</ele>
        <time>2021-02-28T23:04:26Z</time>
      </trkpt>
      <trkpt lat="47.28125" lon="2.58804">
        <ele>364</ele>
        <time>2021-02-28T23:04:43Z</time>
      </trkpt>
      <trkpt lat="47.28129" lon="2.58854">
        <ele>362</ele>
        <time>2021-02-28T23:04:49Z</time>
      </trkpt>
      <trkpt lat="47.28128" lon="2.58902">
        <ele>361</ele>
        <time>2021-02-28T23:04:55Z</time>
      </trkpt>
      <trkpt lat="47.28113" lon="2.5902">
        <ele>360</ele>
        <time>2021-02-28T23:05:09Z</time>
      </trkpt>
      <trkpt lat="47.28079" lon="2.59131">
        <ele>358</ele>
        <time>2021-02-28T23:05:24Z</time>
      </trkpt>
      <trkpt lat="47.28001" lon="2.5931">
        <ele>357</ele>
        <time>2021-02-28T23:05:49Z</time>
      </trkpt>
      <trkpt lat="47.27972" lon="2.59368">
        <ele>356</ele>
        <time>2021-02-28T23:05:58Z</time>
      </trkpt>
      <trkpt lat="47.27951" lon="2.594">
        <ele>354</ele>
        <time>2021-02-28T23:06:03Z</time>
      </trkpt>
      <trkpt lat="47.27923" lon="2.59421">
        <ele>352</ele>
        <time>2021-02-28T23:06:09Z</time>
      </trkpt>
      <trkpt lat="47.27868" lon="2.59445">
        <ele>348</ele>
        <time>2021-02-28T23:06:19Z</time>
      </trkpt>
      <trkpt lat="47.27749" lon="2.59483">
        <ele>339</ele>
        <time>2021-02-28T23:06:41Z</time>
      </trkpt>
      <trkpt lat="47.27688" lon="2.59493">
        <ele>337</ele>
        <time>2021-02-28T23:06:52Z</time>
      </trkpt>
      <trkpt lat="47.27663" lon="2.59493">
        <ele>336</ele>
        <time>2021-02-28T23:06:56Z</time>
      </trkpt>
      <trkpt lat="47.27624" lon="2.59482">
        <ele>335</ele>
        <time>2021-02-28T23:07:03Z</time>
      </trkpt>
      <trkpt lat="47.27374" lon="2.59351">
        <ele>323</ele>
        <time>2021-02-28T23:07:51Z</time>
      </trkpt>
      <trkpt lat="47.27347" lon="2.59333">
        <ele>323</ele>
        <time>2021-02-28T23:07:56Z</time>
      </trkpt>
      <trkpt lat="47.27278" lon="2.59344">
        <ele>319</ele>
        <time>2021-02-28T23:08:08Z</time>
      </trkpt>
      <trkpt lat="47.27208" lon="2.59332">
        <ele>318</ele>
        <time>2021-02-28T23:08:21Z</time>
      </trkpt>
      <trkpt lat="47.2716" lon="2.59327">
        <ele>317</ele>
        <time>2021-02-28T23:08:29Z</time>
      </trkpt>
      <trkpt lat="47.27122" lon="2.59335">
        <ele>318</ele>
        <time>2021-02-28T23:08:36Z</time>
      </trkpt>
      <trkpt lat="47.27087" lon="2.59357">
        <ele>318</ele>
        <time>2021-02-28T23:08:43Z</time>
      </trkpt>
      <trkpt lat="47.27049" lon="2.59395">
        <ele>317</ele>
        <time>2021-02-28T23:08:51Z</time>
      </trkpt>
      <trkpt lat="47.27008" lon="2.59441">
        <ele>316</ele>
        <time>2021-02-28T23:09:00Z</time>
      </trkpt>
      <trkpt lat="47.26975" lon="2.59466">
        <ele>314</ele>
        <time>2021-02-28T23:09:07Z</time>
      </trkpt>
      <trkpt lat="47.26915" lon="2.59576">
        <ele>307</ele>
        <time>2021-02-28T23:09:24Z</time>
      </trkpt>
      <trkpt lat="47.26877" lon="2.5959">
        <ele>304</ele>
        <time>2021-02-28T23:09:31Z</time>
      </trkpt>
      <trkpt lat="47.26845" lon="2.59584">
        <ele>303</ele>
        <time>2021-02-28T23:09:37Z</time>
      </trkpt>
      <trkpt lat="47.2682" lon="2.59551">
        <ele>302</ele>
        <time>2021-02-28T23:09:43Z</time>
      </trkpt>
      <trkpt lat="47.26716" lon="2.59332">
        <ele>295</ele>
        <time>2021-02-28T23:10:15Z</time>
      </trkpt>
      <trkpt lat="47.26699" lon="2.59305">
        <ele>294</ele>
        <time>2021-02-28T23:10:19Z</time>
      </trkpt>
      <trkpt lat="47.26689" lon="2.59296">
        <ele>293</ele>
        <time>2021-02-28T23:10:21Z</time>
      </trkpt>
      <trkpt lat="47.26679" lon="2.59289">
        <ele>292</ele>
        <time>2021-02-28T23:10:23Z</time>
      </trkpt>
      <trkpt lat="47.26666" lon="2.59283">
        <ele>291</ele>
        <time>2021-02-28T23:10:26Z</time>
      </trkpt>
      <trkpt lat="47.26648" lon="2.59278">
        <ele>290</ele>
        <time>2021-02-28T23:10:29Z</time>
      </trkpt>
      <trkpt lat="47.26628" lon="2.59279">
        <ele>289</ele>
        <time>2021-02-28T23:10:33Z</time>
      </trkpt>
      <trkpt lat="47.26613" lon="2.59284">
        <ele>288</ele>
        <time>2021-02-28T23:10:35Z</time>
      </trkpt>
      <trkpt lat="47.26598" lon="2.59294">
        <ele>287</ele>
        <time>2021-02-28T23:10:38Z</time>
      </trkpt>
      <trkpt lat="47.26459" lon="2.59429">
        <ele>278</ele>
        <time>2021-02-28T23:11:08Z</time>
      </trkpt>
      <trkpt lat="47.26429" lon="2.5946">
        <ele>277</ele>
        <time>2021-02-28T23:11:14Z</time>
      </trkpt>
      <trkpt lat="47.26421" lon="2.59483">
        <ele>276</ele>
        <time>2021-02-28T23:11:17Z</time>
      </trkpt>
      <trkpt lat="47.26421" lon="2.59501">
        <ele>275</ele>
        <time>2021-02-28T23:11:20Z</time>
      </trkpt>
      <trkpt lat="47.26446" lon="2.5955">
        <ele>274</ele>
        <time>2021-02-28T23:11:27Z</time>
      </trkpt>
      <trkpt lat="47.26462" lon="2.5959">
        <ele>272</ele>
        <time>2021-02-28T23:11:33Z</time>
      </trkpt>
      <trkpt lat="47.26477" lon="2.59651">
        <ele>272</ele>
        <time>2021-02-28T23:11:41Z</time>
      </trkpt>
      <trkpt lat="47.26486" lon="2.59795">
        <ele>271</ele>
        <time>2021-02-28T23:11:58Z</time>
      </trkpt>
      <trkpt lat="47.26483" lon="2.59855">
        <ele>270</ele>
        <time>2021-02-28T23:12:05Z</time>
      </trkpt>
      <trkpt lat="47.26468" lon="2.59908">
        <ele>268</ele>
        <time>2021-02-28T23:12:12Z</time>
      </trkpt>
      <trkpt lat="47.26449" lon="2.59938">
        <ele>268</ele>
        <time>2021-02-28T23:12:17Z</time>
      </trkpt>
      <trkpt lat="47.26417" lon="2.59949">
        <ele>268</ele>
        <time>2021-02-28T23:12:23Z</time>
      </trkpt>
      <trkpt lat="47.26341" lon="2.59965">
        <ele>264</ele>
        <time>2021-02-28T23:12:37Z</time>
      </trkpt>
      <trkpt lat="47.26311" lon="2.59978">
        <ele>261</ele>
        <time>2021-02-28T23:12:42Z</time>
      </trkpt>
      <trkpt lat="47.26288" lon="2.60002">
        <ele>259</ele>
        <time>2021-02-28T23:12:47Z</time>
      </trkpt>
      <trkpt lat="47.26258" lon="2.60052">
        <ele>258</ele>
        <time>2021-02-28T23:12:55Z</time>
      </trkpt>
      <trkpt lat="47.26196" lon="2.60093">
        <ele>254</ele>
        <time>2021-02-28T23:13:07Z</time>
      </trkpt>
      <trkpt lat="47.26174" lon="2.60119">
        <ele>251</ele>
        <time>2021-02-28T23:13:12Z</time>
      </trkpt>
      <trkpt lat="47.26143" lon="2.6016">
        <ele>248</ele>
        <time>2021-02-28T23:13:20Z</time>
      </trkpt>
      <trkpt lat="47.26122" lon="2.60162">
        <ele>248</ele>
        <time>2021-02-28T23:13:24Z</time>
      </trkpt>
      <trkpt lat="47.25993" lon="2.60131">
        <ele>247</ele>
        <time>2021-02-28T23:13:47Z</time>
      </trkpt>
      <trkpt lat="47.25909" lon="2.60129">
        <ele>246</ele>
        <time>2021-02-28T23:14:02Z</time>
      </trkpt>
      <trkpt lat="47.25888" lon="2.60131">
        <ele>245</ele>
        <time>2021-02-28T23:14:05Z</time>
      </trkpt>
      <trkpt lat="47.25861" lon="2.60144">
        <ele>244</ele>
        <time>2021-02-28T23:14:11Z</time>
      </trkpt>
      <trkpt lat="47.25821" lon="2.60172">
        <ele>243</ele>
        <time>2021-02-28T23:14:18Z</time>
      </trkpt>
      <trkpt lat="47.25755" lon="2.60247">
        <ele>241</ele>
        <time>2021-02-28T23:14:33Z</time>
      </trkpt>
      <trkpt lat="47.25722" lon="2.60282">
        <ele>241</ele>
        <time>2021-02-28T23:14:40Z</time>
      </trkpt>
      <trkpt lat="47.25674" lon="2.6029">
        <ele>242</ele>
        <time>2021-02-28T23:14:49Z</time>
      </trkpt>
      <trkpt lat="47.25628" lon="2.60263">
        <ele>245</ele>
        <time>2021-02-28T23:14:58Z</time>
      </trkpt>
      <trkpt lat="47.25558" lon="2.6019">
        <ele>246</ele>
        <time>2021-02-28T23:15:13Z</time>
      </trkpt>
      <trkpt lat="47.25433" lon="2.60035">
        <ele>248</ele>
        <time>2021-02-28T23:15:42Z</time>
      </trkpt>
      <trkpt lat="47.25287" lon="2.59859">
        <ele>247</ele>
        <time>2021-02-28T23:16:16Z</time>
      </trkpt>
      <trkpt lat="47.25084" lon="2.59664">
        <ele>244</ele>
        <time>2021-02-28T23:16:59Z</time>
      </trkpt>
      <trkpt lat="47.2506" lon="2.59644">
        <ele>242</ele>
        <time>2021-02-28T23:17:04Z</time>
      </trkpt>
      <trkpt lat="47.25041" lon="2.59634">
        <ele>241</ele>
        <time>2021-02-28T23:17:07Z</time>
      </trkpt>
      <trkpt lat="47.25015" lon="2.59623">
        <ele>240</ele>
        <time>2021-02-28T23:17:12Z</time>
      </trkpt>
      <trkpt lat="47.24859" lon="2.59592">
        <ele>236</ele>
        <time>2021-02-28T23:17:40Z</time>
      </trkpt>
      <trkpt lat="47.24741" lon="2.59565">
        <ele>230</ele>
        <time>2021-02-28T23:18:01Z</time>
      </trkpt>
      <trkpt lat="47.24621" lon="2.59561">
        <ele>225</ele>
        <time>2021-02-28T23:18:23Z</time>
      </trkpt>
      <trkpt lat="47.24588" lon="2.59565">
        <ele>223</ele>
        <time>2021-02-28T23:18:29Z</time>
      </trkpt>
      <trkpt lat="47.24538" lon="2.59582">
        <ele>221</ele>
        <time>2021-02-28T23:18:38Z</time>
      </trkpt>
      <trkpt lat="47.24491" lon="2.596">
        <ele>220</ele>
        <time>2021-02-28T23:18:46Z</time>
      </trkpt>
      <trkpt lat="47.2446" lon="2.59626">
        <ele>220</ele>
        <time>2021-02-28T23:18:53Z</time>
      </trkpt>
      <trkpt lat="47.2443" lon="2.59665">
        <ele>219</ele>
        <time>2021-02-28T23:19:00Z</time>
      </trkpt>
      <trkpt lat="47.24381" lon="2.59772">
        <ele>218</ele>
        <time>2021-02-28T23:19:16Z</time>
      </trkpt>
      <trkpt lat="47.24349" lon="2.59849">
        <ele>217</ele>
        <time>2021-02-28T23:19:26Z</time>
      </trkpt>
      <trkpt lat="47.24329" lon="2.59878">
        <ele>216</ele>
        <time>2021-02-28T23:19:31Z</time>
      </trkpt>
      <trkpt lat="47.24315" lon="2.59881">
        <ele>216</ele>
        <time>2021-02-28T23:19:34Z</time>
      </trkpt>
      <trkpt lat="47.24272" lon="2.59885">
        <ele>215</ele>
        <time>2021-02-28T23:19:42Z</time>
      </trkpt>
      <trkpt lat="47.24205" lon="2.59877">
        <ele>216</ele>
        <time>2021-02-28T23:19:54Z</time>
      </trkpt>
      <trkpt lat="47.24171" lon="2.59869">
        <ele>217</ele>
        <time>2021-02-28T23:20:00Z</time>
      </trkpt>
      <trkpt lat="47.24123" lon="2.59873">
        <ele>218</ele>
        <time>2021-02-28T23:20:08Z</time>
      </trkpt>
      <trkpt lat="47.24124" lon="2.59844">
        <ele>219</ele>
        <time>2021-02-28T23:20:12Z</time>
      </trkpt>
      <trkpt lat="47.24129" lon="2.59805">
        <ele>220</ele>
        <time>2021-02-28T23:20:17Z</time>
      </trkpt>
      <trkpt lat="47.24137" lon="2.59768">
        <ele>221</ele>
        <time>2021-02-28T23:20:21Z</time>
      </trkpt>
      <trkpt lat="47.2415" lon="2.59721">
        <ele>222</ele>
        <time>2021-02-28T23:20:27Z</time>
      </trkpt>
      <trkpt lat="47.24195" lon="2.5958">
        <ele>224</ele>
        <time>2021-02-28T23:20:46Z</time>
      </trkpt>
      <trkpt lat="47.24266" lon="2.59446">
        <ele>231</ele>
        <time>2021-02-28T23:21:07Z</time>
      </trkpt>
      <trkpt lat="47.24291" lon="2.59392">
        <ele>232</ele>
        <time>2021-02-28T23:21:15Z</time>
      </trkpt>
      <trkpt lat="47.24301" lon="2.59365">
        <ele>233</ele>
        <time>2021-02-28T23:21:18Z</time>
      </trkpt>
      <trkpt lat="47.24309" lon="2.59336">
        <ele>234</ele>
        <time>2021-02-28T23:21:22Z</time>
      </trkpt>
      <trkpt lat="47.24312" lon="2.59304">
        <ele>236</ele>
        <time>2021-02-28T23:21:26Z</time>
      </trkpt>
      <trkpt lat="47.24313" lon="2.59272">
        <ele>237</ele>
        <time>2021-02-28T23:21:30Z</time>
      </trkpt>
      <trkpt lat="47.2431" lon="2.59242">
        <ele>239</ele>
        <time>2021-02-28T23:21:34Z</time>
      </trkpt>
      <trkpt lat="47.24304" lon="2.59206">
        <ele>241</ele>
        <time>2021-02-28T23:21:38Z</time>
      </trkpt>
      <trkpt lat="47.24283" lon="2.59125">
        <ele>243</ele>
        <time>2021-02-28T23:21:49Z</time>
      </trkpt>
      <trkpt lat="47.24275" lon="2.59084">
        <ele>244</ele>
        <time>2021-02-28T23:21:54Z</time>
      </trkpt>
      <trkpt lat="47.24271" lon="2.59042">
        <ele>246</ele>
        <time>2021-02-28T23:21:59Z</time>
      </trkpt>
      <trkpt lat="47.2427" lon="2.59011">
        <ele>247</ele>
        <time>2021-02-28T23:22:03Z</time>
      </trkpt>
      <trkpt lat="47.24287" lon="2.58791">
        <ele>253</ele>
        <time>2021-02-28T23:22:29Z</time>
      </trkpt>
      <trkpt lat="47.24292" lon="2.58704">
        <ele>254</ele>
        <time>2021-02-28T23:22:40Z</time>
      </trkpt>
      <trkpt lat="47.24299" lon="2.58615">
        <ele>258</ele>
        <time>2021-02-28T23:22:51Z</time>
      </trkpt>
      <trkpt lat="47.24303" lon="2.5859">
        <ele>260</ele>
        <time>2021-02-28T23:22:54Z</time>
      </trkpt>
      <trkpt lat="47.24317" lon="2.58555">
        <ele>260</ele>
        <time>2021-02-28T23:22:59Z</time>
      </trkpt>
      <trkpt lat="47.24346" lon="2.58514">
        <ele>259</ele>
        <time>2021-02-28T23:23:06Z</time>
      </trkpt>
      <trkpt lat="47.2435" lon="2.58495">
        <ele>258</ele>
        <time>2021-02-28T23:23:08Z</time>
      </trkpt>
      <trkpt lat="47.24372" lon="2.58317">
        <ele>252</ele>
        <time>2021-02-28T23:23:30Z</time>
      </trkpt>
      <trkpt lat="47.24368" lon="2.58235">
        <ele>250</ele>
        <time>2021-02-28T23:23:40Z</time>
      </trkpt>
      <trkpt lat="47.24338" lon="2.57829">
        <ele>249</ele>
        <time>2021-02-28T23:24:29Z</time>
      </trkpt>
      <trkpt lat="47.24286" lon="2.57573">
        <ele>244</ele>
        <time>2021-02-28T23:25:02Z</time>
      </trkpt>
      <trkpt lat="47.24206" lon="2.57312">
        <ele>251</ele>
        <time>2021-02-28T23:25:36Z</time>
      </trkpt>
      <trkpt lat="47.24146" lon="2.57128">
        <ele>258</ele>
        <time>2021-02-28T23:26:01Z</time>
      </trkpt>
      <trkpt lat="47.2409" lon="2.5692">
        <ele>252</ele>
        <time>2021-02-28T23:26:28Z</time>
      </trkpt>
      <trkpt lat="47.23949" lon="2.56463">
        <ele>243</ele>
        <time>2021-02-28T23:27:29Z</time>
      </trkpt>
      <trkpt lat="47.23938" lon="2.56414">
        <ele>241</ele>
        <time>2021-02-28T23:27:35Z</time>
      </trkpt>
      <trkpt lat="47.2393" lon="2.56361">
        <ele>240</ele>
        <time>2021-02-28T23:27:41Z</time>
      </trkpt>
      <trkpt lat="47.23931" lon="2.56316">
        <ele>240</ele>
        <time>2021-02-28T23:27:47Z</time>
      </trkpt>
      <trkpt lat="47.23939" lon="2.5626">
        <ele>239</ele>
        <time>2021-02-28T23:27:54Z</time>
      </trkpt>
      <trkpt lat="47.23989" lon="2.56093">
        <ele>239</ele>
        <time>2021-02-28T23:28:16Z</time>
      </trkpt>
      <trkpt lat="47.23994" lon="2.5605">
        <ele>240</ele>
        <time>2021-02-28T23:28:21Z</time>
      </trkpt>
      <trkpt lat="47.23993" lon="2.56">
        <ele>241</ele>
        <time>2021-02-28T23:28:27Z</time>
      </trkpt>
      <trkpt lat="47.23984" lon="2.55956">
        <ele>241</ele>
        <time>2021-02-28T23:28:33Z</time>
      </trkpt>
      <trkpt lat="47.23974" lon="2.55929">
        <ele>241</ele>
        <time>2021-02-28T23:28:36Z</time>
      </trkpt>
      <trkpt lat="47.23942" lon="2.5588">
        <ele>241</ele>
        <time>2021-02-28T23:28:45Z</time>
      </trkpt>
      <trkpt lat="47.23924" lon="2.55847">
        <ele>242</ele>
        <time>2021-02-28T23:28:50Z</time>
      </trkpt>
      <trkpt lat="47.2391" lon="2.55814">
        <ele>243</ele>
        <time>2021-02-28T23:28:54Z</time>
      </trkpt>
      <trkpt lat="47.23892" lon="2.55682">
        <ele>248</ele>
        <time>2021-02-28T23:29:11Z</time>
      </trkpt>
      <trkpt lat="47.23879" lon="2.55627">
        <ele>250</ele>
        <time>2021-02-28T23:29:18Z</time>
      </trkpt>
      <trkpt lat="47.23868" lon="2.556">
        <ele>251</ele>
        <time>2021-02-28T23:29:21Z</time>
      </trkpt>
      <trkpt lat="47.23844" lon="2.55566">
        <ele>252</ele>
        <time>2021-02-28T23:29:27Z</time>
      </trkpt>
      <trkpt lat="47.23814" lon="2.55548">
        <ele>254</ele>
        <time>2021-02-28T23:29:33Z</time>
      </trkpt>
      <trkpt lat="47.23787" lon="2.55544">
        <ele>255</ele>
        <time>2021-02-28T23:29:38Z</time>
      </trkpt>
      <trkpt lat="47.2375" lon="2.55558">
        <ele>256</ele>
        <time>2021-02-28T23:29:45Z</time>
      </trkpt>
      <trkpt lat="47.23714" lon="2.55576">
        <ele>256</ele>
        <time>2021-02-28T23:29:52Z</time>
      </trkpt>
      <trkpt lat="47.23694" lon="2.55579">
        <ele>257</ele>
        <time>2021-02-28T23:29:55Z</time>
      </trkpt>
      <trkpt lat="47.23668" lon="2.55567">
        <ele>259</ele>
        <time>2021-02-28T23:30:00Z</time>
      </trkpt>
      <trkpt lat="47.23649" lon="2.55555">
        <ele>260</ele>
        <time>2021-02-28T23:30:04Z</time>
      </trkpt>
      <trkpt lat="47.23626" lon="2.55528">
        <ele>261</ele>
        <time>2021-02-28T23:30:09Z</time>
      </trkpt>
      <trkpt lat="47.236" lon="2.55474">
        <ele>260</ele>
        <time>2021-02-28T23:30:17Z</time>
      </trkpt>
      <trkpt lat="47.23596" lon="2.55439">
        <ele>259</ele>
        <time>2021-02-28T23:30:21Z</time>
      </trkpt>
      <trkpt lat="47.23591" lon="2.55412">
        <ele>258</ele>
        <time>2021-02-28T23:30:25Z</time>
      </trkpt>
      <trkpt lat="47.23554" lon="2.5536">
        <ele>256</ele>
        <time>2021-02-28T23:30:34Z</time>
      </trkpt>
      <trkpt lat="47.23384" lon="2.54963">
        <ele>261</ele>
        <time>2021-02-28T23:31:30Z</time>
      </trkpt>
      <trkpt lat="47.23329" lon="2.54845">
        <ele>261</ele>
        <time>2021-02-28T23:31:48Z</time>
      </trkpt>
      <trkpt lat="47.23298" lon="2.54767">
        <ele>260</ele>
        <time>2021-02-28T23:31:59Z</time>
      </trkpt>
      <trkpt lat="47.23273" lon="2.54731">
        <ele>260</ele>
        <time>2021-02-28T23:32:05Z</time>
      </trkpt>
      <trkpt lat="47.23265" lon="2.54702">
        <ele>259</ele>
        <time>2021-02-28T23:32:09Z</time>
      </trkpt>
      <trkpt lat="47.23259" lon="2.54653">
        <ele>259</ele>
        <time>2021-02-28T23:32:15Z</time>
      </trkpt>
      <trkpt lat="47.23246" lon="2.54623">
        <ele>257</ele>
        <time>2021-02-28T23:32:19Z</time>
      </trkpt>
      <trkpt lat="47.23223" lon="2.5459">
        <ele>254</ele>
        <time>2021-02-28T23:32:25Z</time>
      </trkpt>
      <trkpt lat="47.23187" lon="2.54531">
        <ele>251</ele>
        <time>2021-02-28T23:32:34Z</time>
      </trkpt>
      <trkpt lat="47.23169" lon="2.54474">
        <ele>250</ele>
        <time>2021-02-28T23:32:42Z</time>
      </trkpt>
      <trkpt lat="47.23154" lon="2.54404">
        <ele>250</ele>
        <time>2021-02-28T23:32:51Z</time>
      </trkpt>
      <trkpt lat="47.23079" lon="2.54036">
        <ele>233</ele>
        <time>2021-02-28T23:33:37Z</time>
      </trkpt>
      <trkpt lat="47.23055" lon="2.53924">
        <ele>231</ele>
        <time>2021-02-28T23:33:51Z</time>
      </trkpt>
      <trkpt lat="47.23043" lon="2.53881">
        <ele>229</ele>
        <time>2021-02-28T23:33:57Z</time>
      </trkpt>
      <trkpt lat="47.2303" lon="2.53857">
        <ele>228</ele>
        <time>2021-02-28T23:34:01Z</time>
      </trkpt>
      <trkpt lat="47.23002" lon="2.53826">
        <ele>226</ele>
        <time>2021-02-28T23:34:07Z</time>
      </trkpt>
      <trkpt lat="47.22974" lon="2.53803">
        <ele>224</ele>
        <time>2021-02-28T23:34:12Z</time>
      </trkpt>
      <trkpt lat="47.22925" lon="2.53772">
        <ele>220</ele>
        <time>2021-02-28T23:34:22Z</time>
      </trkpt>
      <trkpt lat="47.22869" lon="2.53749">
        <ele>218</ele>
        <time>2021-02-28T23:34:32Z</time>
      </trkpt>
      <trkpt lat="47.22605" lon="2.53628">
        <ele>208</ele>
        <time>2021-02-28T23:35:22Z</time>
      </trkpt>
      <trkpt lat="47.22464" lon="2.53566">
        <ele>205</ele>
        <time>2021-02-28T23:35:48Z</time>
      </trkpt>
      <trkpt lat="47.2226" lon="2.53504">
        <ele>202</ele>
        <time>2021-02-28T23:36:25Z</time>
      </trkpt>
      <trkpt lat="47.22202" lon="2.53494">
        <ele>201</ele>
        <time>2021-02-28T23:36:35Z</time>
      </trkpt>
      <trkpt lat="47.22156" lon="2.53496">
        <ele>201</ele>
        <time>2021-02-28T23:36:43Z</time>
      </trkpt>
      <trkpt lat="47.22121" lon="2.5348">
        <ele>200</ele>
        <time>2021-02-28T23:36:50Z</time>
      </trkpt>
      <trkpt lat="47.22005" lon="2.53417">
        <ele>198</ele>
        <time>2021-02-28T23:37:12Z</time>
      </trkpt>
      <trkpt lat="47.21909" lon="2.53345">
        <ele>196</ele>
        <time>2021-02-28T23:37:31Z</time>
      </trkpt>
      <trkpt lat="47.21319" lon="2.52889">
        <ele>196</ele>
        <time>2021-02-28T23:39:30Z</time>
      </trkpt>
      <trkpt lat="47.21256" lon="2.52844">
        <ele>198</ele>
        <time>2021-02-28T23:39:42Z</time>
      </trkpt>
      <trkpt lat="47.21197" lon="2.52807">
        <ele>198</ele>
        <time>2021-02-28T23:39:53Z</time>
      </trkpt>
      <trkpt lat="47.21085" lon="2.52747">
        <ele>195</ele>
        <time>2021-02-28T23:40:15Z</time>
      </trkpt>
      <trkpt lat="47.20835" lon="2.52599">
        <ele>198</ele>
        <time>2021-02-28T23:41:03Z</time>
      </trkpt>
      <trkpt lat="47.2076" lon="2.52552">
        <ele>196</ele>
        <time>2021-02-28T23:41:17Z</time>
      </trkpt>
      <trkpt lat="47.20729" lon="2.52521">
        <ele>195</ele>
        <time>2021-02-28T23:41:24Z</time>
      </trkpt>
      <trkpt lat="47.20703" lon="2.52484">
        <ele>196</ele>
        <time>2021-02-28T23:41:30Z</time>
      </trkpt>
      <trkpt lat="47.20662" lon="2.5242">
        <ele>196</ele>
        <time>2021-02-28T23:41:41Z</time>
      </trkpt>
      <trkpt lat="47.2063" lon="2.52383">
        <ele>196</ele>
        <time>2021-02-28T23:41:48Z</time>
      </trkpt>
      <trkpt lat="47.2059" lon="2.52352">
        <ele>197</ele>
        <time>2021-02-28T23:41:56Z</time>
      </trkpt>
      <trkpt lat="47.20573" lon="2.52335">
        <ele>197</ele>
        <time>2021-02-28T23:42:00Z</time>
      </trkpt>
      <trkpt lat="47.19949" lon="2.52162">
        <ele>190</ele>
        <time>2021-02-28T23:43:53Z</time>
      </trkpt>
      <trkpt lat="47.19825" lon="2.52122">
        <ele>184</ele>
        <time>2021-02-28T23:44:15Z</time>
      </trkpt>
      <trkpt lat="47.19759" lon="2.52103">
        <ele>182</ele>
        <time>2021-02-28T23:44:27Z</time>
      </trkpt>
      <trkpt lat="47.19717" lon="2.52094">
        <ele>182</ele>
        <time>2021-02-28T23:44:35Z</time>
      </trkpt>
      <trkpt lat="47.19603" lon="2.52057">
        <ele>181</ele>
        <time>2021-02-28T23:44:56Z</time>
      </trkpt>
      <trkpt lat="47.19571" lon="2.52049">
        <ele>181</ele>
        <time>2021-02-28T23:45:01Z</time>
      </trkpt>
      <trkpt lat="47.19495" lon="2.52049">
        <ele>181</ele>
        <time>2021-02-28T23:45:15Z</time>
      </trkpt>
      <trkpt lat="47.19462" lon="2.52042">
        <ele>181</ele>
        <time>2021-02-28T23:45:21Z</time>
      </trkpt>
      <trkpt lat="47.19421" lon="2.52028">
        <ele>180</ele>
        <time>2021-02-28T23:45:28Z</time>
      </trkpt>
      <trkpt lat="47.19338" lon="2.51987">
        <ele>181</ele>
        <time>2021-02-28T23:45:44Z</time>
      </trkpt>
      <trkpt lat="47.19283" lon="2.5198">
        <ele>180</ele>
        <time>2021-02-28T23:45:54Z</time>
      </trkpt>
      <trkpt lat="47.19218" lon="2.51992">
        <ele>179</ele>
        <time>2021-02-28T23:46:05Z</time>
      </trkpt>
      <trkpt lat="47.19194" lon="2.51985">
        <ele>179</ele>
        <time>2021-02-28T23:46:10Z</time>
      </trkpt>
      <trkpt lat="47.18749" lon="2.51798">
        <ele>175</ele>
        <time>2021-02-28T23:47:32Z</time>
      </trkpt>
      <trkpt lat="47.18687" lon="2.51775">
        <ele>174</ele>
        <time>2021-02-28T23:47:43Z</time>
      </trkpt>
      <trkpt lat="47.18653" lon="2.51764">
        <ele>174</ele>
        <time>2021-02-28T23:47:50Z</time>
      </trkpt>
      <trkpt lat="47.18549" lon="2.51711">
        <ele>170</ele>
        <time>2021-02-28T23:48:09Z</time>
      </trkpt>
      <trkpt lat="47.18337" lon="2.51596">
        <ele>163</ele>
        <time>2021-02-28T23:48:49Z</time>
      </trkpt>
      <trkpt lat="47.18265" lon="2.51566">
        <ele>162</ele>
        <time>2021-02-28T23:49:03Z</time>
      </trkpt>
      <trkpt lat="47.18132" lon="2.51566">
        <ele>162</ele>
        <time>2021-02-28T23:49:26Z</time>
      </trkpt>
      <trkpt lat="47.18091" lon="2.51563">
        <ele>162</ele>
        <time>2021-02-28T23:49:34Z</time>
      </trkpt>
      <trkpt lat="47.18048" lon="2.51547">
        <ele>161</ele>
        <time>2021-02-28T23:49:42Z</time>
      </trkpt>
      <trkpt lat="47.17851" lon="2.51425">
        <ele>159</ele>
        <time>2021-02-28T23:50:20Z</time>
      </trkpt>
      <trkpt lat="47.17426" lon="2.51168">
        <ele>163</ele>
        <time>2021-02-28T23:51:41Z</time>
      </trkpt>
      <trkpt lat="47.17402" lon="2.5115">
        <ele>163</ele>
        <time>2021-02-28T23:51:46Z</time>
      </trkpt>
      <trkpt lat="47.166" lon="2.50428">
        <ele>156</ele>
        <time>2021-02-28T23:54:34Z</time>
      </trkpt>
      <trkpt lat="47.16512" lon="2.50351">
        <ele>156</ele>
        <time>2021-02-28T23:54:52Z</time>
      </trkpt>
      <trkpt lat="47.16404" lon="2.50255">
        <ele>156</ele>
        <time>2021-02-28T23:55:14Z</time>
      </trkpt>
      <trkpt lat="47.16272" lon="2.50116">
        <ele>158</ele>
        <time>2021-02-28T23:55:43Z</time>
      </trkpt>
      <trkpt lat="47.1601" lon="2.49832">
        <ele>154</ele>
        <time>2021-02-28T23:56:41Z</time>
      </trkpt>
      <trkpt lat="47.15972" lon="2.49779">
        <ele>153</ele>
        <time>2021-02-28T23:56:50Z</time>
      </trkpt>
      <trkpt lat="47.15812" lon="2.49497">
        <ele>151</ele>
        <time>2021-02-28T23:57:35Z</time>
      </trkpt>
      <trkpt lat="47.15796" lon="2.49475">
        <ele>150</ele>
        <time>2021-02-28T23:57:39Z</time>
      </trkpt>
      <trkpt lat="47.15779" lon="2.49459">
        <ele>150</ele>
        <time>2021-02-28T23:57:42Z</time>
      </trkpt>
      <trkpt lat="47.15762" lon="2.4945">
        <ele>149</ele>
        <time>2021-02-28T23:57:45Z</time>
      </trkpt>
      <trkpt lat="47.15742" lon="2.49445">
        <ele>149</ele>
        <time>2021-02-28T23:57:49Z</time>
      </trkpt>
      <trkpt lat="47.15481" lon="2.49472">
        <ele>156</ele>
        <time>2021-02-28T23:58:36Z</time>
      </trkpt>
      <trkpt lat="47.15453" lon="2.49466">
        <ele>157</ele>
        <time>2021-02-28T23:58:41Z</time>
      </trkpt>
      <trkpt lat="47.15425" lon="2.49448">
        <ele>157</ele>
        <time>2021-02-28T23:58:46Z</time>
      </trkpt>
      <trkpt lat="47.15317" lon="2.49363">
        <ele>157</ele>
        <time>2021-02-28T23:59:08Z</time>
      </trkpt>
      <trkpt lat="47.1522" lon="2.49283">
        <ele>157</ele>
        <time>2021-02-28T23:59:28Z</time>
      </trkpt>
      <trkpt lat="47.1485" lon="2.48944">
        <ele>154</ele>
        <time>2021-03-01T00:00:45Z</time>
      </trkpt>
      <trkpt lat="47.14826" lon="2.48919">
        <ele>153</ele>
        <time>2021-03-01T00:00:50Z</time>
      </trkpt>
      <trkpt lat="47.14804" lon="2.4889">
        <ele>153</ele>
        <time>2021-03-01T00:00:56Z</time>
      </trkpt>
      <trkpt lat="47.14798" lon="2.4888">
        <ele>153</ele>
        <time>2021-03-01T00:00:57Z</time>
      </trkpt>
      <trkpt lat="47.14705" lon="2.48802">
        <ele>153</ele>
        <time>2021-03-01T00:01:16Z</time>
      </trkpt>
      <trkpt lat="47.14625" lon="2.48692">
        <ele>148</ele>
        <time>2021-03-01T00:01:36Z</time>
      </trkpt>
      <trkpt lat="47.14626" lon="2.48686">
        <ele>148</ele>
        <time>2021-03-01T00:01:37Z</time>
      </trkpt>
      <trkpt lat="47.14625" lon="2.48682">
        <ele>147</ele>
        <time>2021-03-01T00:01:37Z</time>
      </trkpt>
      <trkpt lat="47.14621" lon="2.48679">
        <ele>147</ele>
        <time>2021-03-01T00:01:38Z</time>
      </trkpt>
      <trkpt lat="47.14616" lon="2.48681">
        <ele>147</ele>
        <time>2021-03-01T00:01:39Z</time>
      </trkpt>
      <trkpt lat="47.14597" lon="2.48662">
        <ele>146</ele>
        <time>2021-03-01T00:01:43Z</time>
      </trkpt>
      <trkpt lat="47.14581" lon="2.48651">
        <ele>146</ele>
        <time>2021-03-01T00:01:46Z</time>
      </trkpt>
      <trkpt lat="47.14558" lon="2.48643">
        <ele>146</ele>
        <time>2021-03-01T00:01:50Z</time>
      </trkpt>
      <trkpt lat="47.14484" lon="2.48629">
        <ele>147</ele>
        <time>2021-03-01T00:02:04Z</time>
      </trkpt>
      <trkpt lat="47.1445" lon="2.48618">
        <ele>146</ele>
        <time>2021-03-01T00:02:10Z</time>
      </trkpt>
      <trkpt lat="47.14284" lon="2.48541">
        <ele>145</ele>
        <time>2021-03-01T00:02:41Z</time>
      </trkpt>
      <trkpt lat="47.14255" lon="2.48523">
        <ele>145</ele>
        <time>2021-03-01T00:02:46Z</time>
      </trkpt>
      <trkpt lat="47.14139" lon="2.48425">
        <ele>145</ele>
        <time>2021-03-01T00:03:10Z</time>
      </trkpt>
      <trkpt lat="47.1409" lon="2.48382">
        <ele>145</ele>
        <time>2021-03-01T00:03:20Z</time>
      </trkpt>
      <trkpt lat="47.1405" lon="2.48359">
        <ele>147</ele>
        <time>2021-03-01T00:03:28Z</time>
      </trkpt>
      <trkpt lat="47.14013" lon="2.48343">
        <ele>148</ele>
        <time>2021-03-01T00:03:35Z</time>
      </trkpt>
      <trkpt lat="47.13989" lon="2.48335">
        <ele>149</ele>
        <time>2021-03-01T00:03:39Z</time>
      </trkpt>
      <trkpt lat="47.13878" lon="2.48319">
        <ele>145</ele>
        <time>2021-03-01T00:03:59Z</time>
      </trkpt>
      <trkpt lat="47.13866" lon="2.48315">
        <ele>145</ele>
        <time>2021-03-01T00:04:01Z</time>
      </trkpt>
      <trkpt lat="47.13831" lon="2.48278">
        <ele>145</ele>
        <time>2021-03-01T00:04:09Z</time>
      </trkpt>
      <trkpt lat="47.13451" lon="2.47791">
        <ele>147</ele>
        <time>2021-03-01T00:05:39Z</time>
      </trkpt>
      <trkpt lat="47.13334" lon="2.47649">
        <ele>152</ele>
        <time>2021-03-01T00:06:06Z</time>
      </trkpt>
      <trkpt lat="47.13315" lon="2.47622">
        <ele>152</ele>
        <time>2021-03-01T00:06:10Z</time>
      </trkpt>
      <trkpt lat="47.13297" lon="2.47588">
        <ele>152</ele>
        <time>2021-03-01T00:06:16Z</time>
      </trkpt>
      <trkpt lat="47.13274" lon="2.47522">
        <ele>152</ele>
        <time>2021-03-01T00:06:24Z</time>
      </trkpt>
      <trkpt lat="47.13254" lon="2.47449">
        <ele>153</ele>
        <time>2021-03-01T00:06:34Z</time>
      </trkpt>
      <trkpt lat="47.13238" lon="2.4738">
        <ele>154</ele>
        <time>2021-03-01T00:06:43Z</time>
      </trkpt>
      <trkpt lat="47.13139" lon="2.47011">
        <ele>151</ele>
        <time>2021-03-01T00:07:31Z</time>
      </trkpt>
      <trkpt lat="47.13126" lon="2.46972">
        <ele>151</ele>
        <time>2021-03-01T00:07:36Z</time>
      </trkpt>
      <trkpt lat="47.12879" lon="2.46402">
        <ele>151</ele>
        <time>2021-03-01T00:08:58Z</time>
      </trkpt>
      <trkpt lat="47.12832" lon="2.46307">
        <ele>152</ele>
        <time>2021-03-01T00:09:12Z</time>
      </trkpt>
      <trkpt lat="47.12751" lon="2.46151">
        <ele>151</ele>
        <time>2021-03-01T00:09:36Z</time>
      </trkpt>
      <trkpt lat="47.127" lon="2.46063">
        <ele>154</ele>
        <time>2021-03-01T00:09:50Z</time>
      </trkpt>
      <trkpt lat="47.1259" lon="2.45886">
        <ele>159</ele>
        <time>2021-03-01T00:10:19Z</time>
      </trkpt>
      <trkpt lat="47.12565" lon="2.4584">
        <ele>160</ele>
        <time>2021-03-01T00:10:26Z</time>
      </trkpt>
      <trkpt lat="47.12534" lon="2.45791">
        <ele>160</ele>
        <time>2021-03-01T00:10:34Z</time>
      </trkpt>
      <trkpt lat="47.12475" lon="2.45716">
        <ele>160</ele>
        <time>2021-03-01T00:10:48Z</time>
      </trkpt>
      <trkpt lat="47.12411" lon="2.45647">
        <ele>158</ele>
        <time>2021-03-01T00:11:02Z</time>
      </trkpt>
      <trkpt lat="47.12194" lon="2.45439">
        <ele>155</ele>
        <time>2021-03-01T00:11:48Z</time>
      </trkpt>
      <trkpt lat="47.12164" lon="2.45405">
        <ele>154</ele>
        <time>2021-03-01T00:11:55Z</time>
      </trkpt>
      <trkpt lat="47.11985" lon="2.45111">
        <ele>157</ele>
        <time>2021-03-01T00:12:43Z</time>
      </trkpt>
      <trkpt lat="47.1192" lon="2.45011">
        <ele>158</ele>
        <time>2021-03-01T00:12:59Z</time>
      </trkpt>
      <trkpt lat="47.11766" lon="2.44758">
        <ele>161</ele>
        <time>2021-03-01T00:13:41Z</time>
      </trkpt>
      <trkpt lat="47.11752" lon="2.44726">
        <ele>161</ele>
        <time>2021-03-01T00:13:45Z</time>
      </trkpt>
      <trkpt lat="47.11726" lon="2.44661">
        <ele>162</ele>
        <time>2021-03-01T00:13:54Z</time>
      </trkpt>
      <trkpt lat="47.11698" lon="2.44604">
        <ele>162</ele>
        <time>2021-03-01T00:14:03Z</time>
      </trkpt>
      <trkpt lat="47.11654" lon="2.44521">
        <ele>162</ele>
        <time>2021-03-01T00:14:16Z</time>
      </trkpt>
      <trkpt lat="47.11648" lon="2.44508">
        <ele>162</ele>
        <time>2021-03-01T00:14:17Z</time>
      </trkpt>
      <trkpt lat="47.11651" lon="2.44494">
        <ele>162</ele>
        <time>2021-03-01T00:14:19Z</time>
      </trkpt>
      <trkpt lat="47.11652" lon="2.44481">
        <ele>162</ele>
        <time>2021-03-01T00:14:21Z</time>
      </trkpt>
      <trkpt lat="47.11649" lon="2.44469">
        <ele>162</ele>
        <time>2021-03-01T00:14:22Z</time>
      </trkpt>
      <trkpt lat="47.11645" lon="2.4446">
        <ele>162</ele>
        <time>2021-03-01T00:14:24Z</time>
      </trkpt>
      <trkpt lat="47.11638" lon="2.44454">
        <ele>162</ele>
        <time>2021-03-01T00:14:25Z</time>
      </trkpt>
      <trkpt lat="47.1163" lon="2.44452">
        <ele>162</ele>
        <time>2021-03-01T00:14:27Z</time>
      </trkpt>
      <trkpt lat="47.11621" lon="2.44452">
        <ele>161</ele>
        <time>2021-03-01T00:14:28Z</time>
      </trkpt>
      <trkpt lat="47.11609" lon="2.44446">
        <ele>161</ele>
        <time>2021-03-01T00:14:30Z</time>
      </trkpt>
      <trkpt lat="47.11597" lon="2.44434">
        <ele>161</ele>
        <time>2021-03-01T00:14:33Z</time>
      </trkpt>
      <trkpt lat="47.11576" lon="2.44409">
        <ele>161</ele>
        <time>2021-03-01T00:14:38Z</time>
      </trkpt>
      <trkpt lat="47.11478" lon="2.44249">
        <ele>160</ele>
        <time>2021-03-01T00:15:04Z</time>
      </trkpt>
      <trkpt lat="47.11102" lon="2.43653">
        <ele>157</ele>
        <time>2021-03-01T00:16:42Z</time>
      </trkpt>
      <trkpt lat="47.11076" lon="2.43605">
        <ele>157</ele>
        <time>2021-03-01T00:16:50Z</time>
      </trkpt>
      <trkpt lat="47.11018" lon="2.4349">
        <ele>156</ele>
        <time>2021-03-01T00:17:07Z</time>
      </trkpt>
      <trkpt lat="47.10946" lon="2.4331">
        <ele>157</ele>
        <time>2021-03-01T00:17:32Z</time>
      </trkpt>
      <trkpt lat="47.10896" lon="2.43206">
        <ele>157</ele>
        <time>2021-03-01T00:17:48Z</time>
      </trkpt>
      <trkpt lat="47.10742" lon="2.42943">
        <ele>152</ele>
        <time>2021-03-01T00:18:30Z</time>
      </trkpt>
      <trkpt lat="47.10719" lon="2.42974">
        <ele>152</ele>
        <time>2021-03-01T00:18:35Z</time>
      </trkpt>
      <trkpt lat="47.10683" lon="2.42999">
        <ele>151</ele>
        <time>2021-03-01T00:18:42Z</time>
      </trkpt>
      <trkpt lat="47.10719" lon="2.42974">
        <ele>152</ele>
        <time>2021-03-01T00:18:49Z</time>
      </trkpt>
      <trkpt lat="47.10742" lon="2.42943">
        <ele>152</ele>
        <time>2021-03-01T00:18:55Z</time>
      </trkpt>
      <trkpt lat="47.10724" lon="2.42914">
        <ele>152</ele>
        <time>2021-03-01T00:19:00Z</time>
      </trkpt>
      <trkpt lat="47.10648" lon="2.428">
        <ele>148</ele>
        <time>2021-03-01T00:19:19Z</time>
      </trkpt>
      <trkpt lat="47.10504" lon="2.42548">
        <ele>140</ele>
        <time>2021-03-01T00:19:59Z</time>
      </trkpt>
      <trkpt lat="47.10251" lon="2.42732">
        <ele>132</ele>
        <time>2021-03-01T00:20:49Z</time>
      </trkpt>
      <trkpt lat="47.10072" lon="2.42228">
        <ele>136</ele>
        <time>2021-03-01T00:21:58Z</time>
      </trkpt>
      <trkpt lat="47.09959" lon="2.4232">
        <ele>134</ele>
        <time>2021-03-01T00:22:21Z</time>
      </trkpt>
      <trkpt lat="47.09955" lon="2.42355">
        <ele>133</ele>
        <time>2021-03-01T00:22:25Z</time>
      </trkpt>
      <trkpt lat="47.09864" lon="2.4243">
        <ele>127</ele>
        <time>2021-03-01T00:22:44Z</time>
      </trkpt>
      <trkpt lat="47.09857" lon="2.4244">
        <ele>126</ele>
        <time>2021-03-01T00:22:46Z</time>
      </trkpt>
      <trkpt lat="47.09774" lon="2.42713">
        <ele>127</ele>
        <time>2021-03-01T00:23:22Z</time>
      </trkpt>
      <trkpt lat="47.0977" lon="2.4273">
        <ele>127</ele>
        <time>2021-03-01T00:23:24Z</time>
      </trkpt>
      <trkpt lat="47.09703" lon="2.42604">
        <ele>128</ele>
        <time>2021-03-01T00:23:43Z</time>
      </trkpt>
      <trkpt lat="47.09686" lon="2.42576">
        <ele>128</ele>
        <time>2021-03-01T00:23:48Z</time>
      </trkpt>
      <trkpt lat="47.09662" lon="2.42538">
        <ele>127</ele>
        <time>2021-03-01T00:23:54Z</time>
      </trkpt>
      <trkpt lat="47.09636" lon="2.4251">
        <ele>127</ele>
        <time>2021-03-01T00:24:00Z</time>
      </trkpt>
      <trkpt lat="47.09598" lon="2.42478">
        <ele>127</ele>
        <time>2021-03-01T00:24:08Z</time>
      </trkpt>
      <trkpt lat="47.09561" lon="2.42466">
        <ele>128</ele>
        <time>2021-03-01T00:24:14Z</time>
      </trkpt>
      <trkpt lat="47.09518" lon="2.4246">
        <ele>129</ele>
        <time>2021-03-01T00:24:22Z</time>
      </trkpt>
      <trkpt lat="47.09518" lon="2.42427">
        <ele>129</ele>
        <time>2021-03-01T00:24:26Z</time>
      </trkpt>
      <trkpt lat="47.0951" lon="2.42357">
        <ele>129</ele>
        <time>2021-03-01T00:24:35Z</time>
      </trkpt>
      <trkpt lat="47.09497" lon="2.42339">
        <ele>129</ele>
        <time>2021-03-01T00:24:38Z</time>
      </trkpt>
      <trkpt lat="47.09477" lon="2.42338">
        <ele>129</ele>
        <time>2021-03-01T00:24:42Z</time>
      </trkpt>
      <trkpt lat="47.09452" lon="2.42333">
        <ele>130</ele>
        <time>2021-03-01T00:24:46Z</time>
      </trkpt>
      <trkpt lat="47.09427" lon="2.42323">
        <ele>130</ele>
        <time>2021-03-01T00:24:51Z</time>
      </trkpt>
      <trkpt lat="47.09365" lon="2.42267">
        <ele>132</ele>
        <time>2021-03-01T00:25:04Z</time>
      </trkpt>
      <trkpt lat="47.09341" lon="2.42251">
        <ele>133</ele>
        <time>2021-03-01T00:25:08Z</time>
      </trkpt>
      <trkpt lat="47.09244" lon="2.42203">
        <ele>133</ele>
        <time>2021-03-01T00:25:26Z</time>
      </trkpt>
      <trkpt lat="47.09192" lon="2.42181">
        <ele>133</ele>
        <time>2021-03-01T00:25:36Z</time>
      </trkpt>
      <trkpt lat="47.09177" lon="2.42166">
        <ele>134</ele>
        <time>2021-03-01T00:25:39Z</time>
      </trkpt>
      <trkpt lat="47.09174" lon="2.42152">
        <ele>133</ele>
        <time>2021-03-01T00:25:41Z</time>
      </trkpt>
      <trkpt lat="47.09165" lon="2.42143">
        <ele>133</ele>
        <time>2021-03-01T00:25:43Z</time>
      </trkpt>
      <trkpt lat="47.09154" lon="2.42143">
        <ele>133</ele>
        <time>2021-03-01T00:25:45Z</time>
      </trkpt>
      <trkpt lat="47.09147" lon="2.42148">
        <ele>133</ele>
        <time>2021-03-01T00:25:46Z</time>
      </trkpt>
      <trkpt lat="47.09141" lon="2.42159">
        <ele>133</ele>
        <time>2021-03-01T00:25:48Z</time>
      </trkpt>
      <trkpt lat="47.09132" lon="2.42164">
        <ele>133</ele>
        <time>2021-03-01T00:25:50Z</time>
      </trkpt>
      <trkpt lat="47.09013" lon="2.42155">
        <ele>128</ele>
        <time>2021-03-01T00:26:11Z</time>
      </trkpt>
      <trkpt lat="47.08992" lon="2.42157">
        <ele>128</ele>
        <time>2021-03-01T00:26:15Z</time>
      </trkpt>
      <trkpt lat="47.08527" lon="2.42047">
        <ele>129</ele>
        <time>2021-03-01T00:27:39Z</time>
      </trkpt>
      <trkpt lat="47.08506" lon="2.42041">
        <ele>129</ele>
        <time>2021-03-01T00:27:42Z</time>
      </trkpt>
      <trkpt lat="47.08399" lon="2.4195">
        <ele>133</ele>
        <time>2021-03-01T00:28:04Z</time>
      </trkpt>
      <trkpt lat="47.08386" lon="2.41941">
        <ele>134</ele>
        <time>2021-03-01T00:28:07Z</time>
      </trkpt>
      <trkpt lat="47.08366" lon="2.41937">
        <ele>135</ele>
        <time>2021-03-01T00:28:11Z</time>
      </trkpt>
      <trkpt lat="47.08343" lon="2.41939">
        <ele>136</ele>
        <time>2021-03-01T00:28:15Z</time>
      </trkpt>
      <trkpt lat="47.07925" lon="2.41999">
        <ele>147</ele>
        <time>2021-03-01T00:29:29Z</time>
      </trkpt>
      <trkpt lat="47.07737" lon="2.41995">
        <ele>149</ele>
        <time>2021-03-01T00:30:03Z</time>
      </trkpt>
      <trkpt lat="47.07728" lon="2.41981">
        <ele>149</ele>
        <time>2021-03-01T00:30:05Z</time>
      </trkpt>
      <trkpt lat="47.0772" lon="2.4196">
        <ele>149</ele>
        <time>2021-03-01T00:30:08Z</time>
      </trkpt>
      <trkpt lat="47.07685" lon="2.41888">
        <ele>149</ele>
        <time>2021-03-01T00:30:19Z</time>
      </trkpt>
      <trkpt lat="47.07652" lon="2.41832">
        <ele>148</ele>
        <time>2021-03-01T00:30:28Z</time>
      </trkpt>
      <trkpt lat="47.07664" lon="2.41819">
        <ele>147</ele>
        <time>2021-03-01T00:30:30Z</time>
      </trkpt>
      <trkpt lat="47.0766" lon="2.41813">
        <ele>147</ele>
        <time>2021-03-01T00:30:31Z</time>
      </trkpt>
      <trkpt lat="47.07656" lon="2.41818">
        <ele>147</ele>
        <time>2021-03-01T00:30:32Z</time>
      </trkpt>
      <trkpt lat="47.0765" lon="2.41819">
        <ele>148</ele>
        <time>2021-03-01T00:30:33Z</time>
      </trkpt>
      <trkpt lat="47.07646" lon="2.41812">
        <ele>148</ele>
        <time>2021-03-01T00:30:35Z</time>
      </trkpt>
    </trkseg>
  </trk>
</gpx>